sensor_id;sensor_type;location;lat;lon;timestamp;P1;durP1;ratioP1;P2;durP2;ratioP2
15425;SDS011;7812;50.072;7.036;2022-07-05T00:02:24;2.83;;;1.27;;
15425;SDS011;7812;50.072;7.036;2022-07-05T00:04:50;1.90;;;1.30;;
15425;SDS011;7812;50.072;7.036;2022-07-05T00:07:16;2.60;;;1.50;;
15425;SDS011;7812;50.072;7.036;2022-07-05T00:09:43;1.97;;;1.40;;
15425;SDS011;7812;50.072;7.036;2022-07-05T00:12:13;2.40;;;1.53;;
15425;SDS011;7812;50.072;7.036;2022-07-05T00:14:39;2.57;;;1.20;;
15425;SDS011;7812;50.072;7.036;2022-07-05T00:17:06;1.57;;;1.40;;
15425;SDS011;7812;50.072;7.036;2022-07-05T00:19:32;1.37;;;1.20;;
15425;SDS011;7812;50.072;7.036;2022-07-05T00:21:58;2.20;;;1.47;;
15425;SDS011;7812;50.072;7.036;2022-07-05T00:24:25;1.63;;;1.47;;
15425;SDS011;7812;50.072;7.036;2022-07-05T00:26:51;1.47;;;1.37;;
15425;SDS011;7812;50.072;7.036;2022-07-05T00:29:16;1.37;;;1.20;;
15425;SDS011;7812;50.072;7.036;2022-07-05T00:31:42;2.20;;;1.50;;
15425;SDS011;7812;50.072;7.036;2022-07-05T00:34:08;3.13;;;1.47;;
15425;SDS011;7812;50.072;7.036;2022-07-05T00:36:34;3.70;;;1.53;;
15425;SDS011;7812;50.072;7.036;2022-07-05T00:38:59;1.73;;;1.40;;
15425;SDS011;7812;50.072;7.036;2022-07-05T00:41:25;2.57;;;1.30;;
15425;SDS011;7812;50.072;7.036;2022-07-05T00:44:00;3.10;;;1.27;;
15425;SDS011;7812;50.072;7.036;2022-07-05T00:46:29;3.07;;;1.70;;
15425;SDS011;7812;50.072;7.036;2022-07-05T00:48:56;1.60;;;1.50;;
15425;SDS011;7812;50.072;7.036;2022-07-05T00:51:23;3.90;;;1.60;;
15425;SDS011;7812;50.072;7.036;2022-07-05T00:53:49;3.47;;;1.23;;
15425;SDS011;7812;50.072;7.036;2022-07-05T00:56:15;2.90;;;1.77;;
15425;SDS011;7812;50.072;7.036;2022-07-05T00:58:42;2.60;;;1.33;;
15425;SDS011;7812;50.072;7.036;2022-07-05T01:01:09;2.20;;;1.47;;
15425;SDS011;7812;50.072;7.036;2022-07-05T01:03:35;2.43;;;1.63;;
15425;SDS011;7812;50.072;7.036;2022-07-05T01:06:01;4.07;;;1.60;;
15425;SDS011;7812;50.072;7.036;2022-07-05T01:08:30;3.30;;;1.50;;
15425;SDS011;7812;50.072;7.036;2022-07-05T01:11:02;2.57;;;1.80;;
15425;SDS011;7812;50.072;7.036;2022-07-05T01:13:28;1.83;;;1.50;;
15425;SDS011;7812;50.072;7.036;2022-07-05T01:15:54;2.27;;;1.70;;
15425;SDS011;7812;50.072;7.036;2022-07-05T01:18:21;3.07;;;1.40;;
15425;SDS011;7812;50.072;7.036;2022-07-05T01:20:47;1.80;;;1.40;;
15425;SDS011;7812;50.072;7.036;2022-07-05T01:23:14;1.57;;;1.40;;
15425;SDS011;7812;50.072;7.036;2022-07-05T01:25:42;3.07;;;1.53;;
15425;SDS011;7812;50.072;7.036;2022-07-05T01:28:09;1.80;;;1.70;;
15425;SDS011;7812;50.072;7.036;2022-07-05T01:30:35;3.73;;;1.50;;
15425;SDS011;7812;50.072;7.036;2022-07-05T01:33:02;2.03;;;1.60;;
15425;SDS011;7812;50.072;7.036;2022-07-05T01:35:30;2.07;;;1.50;;
15425;SDS011;7812;50.072;7.036;2022-07-05T01:37:59;1.40;;;1.13;;
15425;SDS011;7812;50.072;7.036;2022-07-05T01:40:25;2.60;;;1.40;;
15425;SDS011;7812;50.072;7.036;2022-07-05T01:42:51;2.07;;;1.67;;
15425;SDS011;7812;50.072;7.036;2022-07-05T01:45:18;1.67;;;1.50;;
15425;SDS011;7812;50.072;7.036;2022-07-05T01:48:02;1.47;;;1.30;;
15425;SDS011;7812;50.072;7.036;2022-07-05T01:50:57;1.40;;;1.30;;
15425;SDS011;7812;50.072;7.036;2022-07-05T01:53:27;1.70;;;1.60;;
15425;SDS011;7812;50.072;7.036;2022-07-05T01:55:55;1.37;;;1.20;;
15425;SDS011;7812;50.072;7.036;2022-07-05T01:58:22;1.70;;;1.47;;
15425;SDS011;7812;50.072;7.036;2022-07-05T02:00:50;3.30;;;1.57;;
15425;SDS011;7812;50.072;7.036;2022-07-05T02:03:17;2.43;;;1.40;;
15425;SDS011;7812;50.072;7.036;2022-07-05T02:05:43;1.43;;;1.30;;
15425;SDS011;7812;50.072;7.036;2022-07-05T02:08:11;2.10;;;1.50;;
15425;SDS011;7812;50.072;7.036;2022-07-05T02:10:38;2.00;;;1.70;;
15425;SDS011;7812;50.072;7.036;2022-07-05T02:13:04;2.07;;;1.60;;
15425;SDS011;7812;50.072;7.036;2022-07-05T02:15:31;1.70;;;1.40;;
15425;SDS011;7812;50.072;7.036;2022-07-05T02:17:58;2.60;;;1.40;;
15425;SDS011;7812;50.072;7.036;2022-07-05T02:20:24;1.40;;;1.30;;
15425;SDS011;7812;50.072;7.036;2022-07-05T02:22:50;3.30;;;1.70;;
15425;SDS011;7812;50.072;7.036;2022-07-05T02:25:15;1.80;;;1.40;;
15425;SDS011;7812;50.072;7.036;2022-07-05T02:27:41;2.33;;;1.60;;
15425;SDS011;7812;50.072;7.036;2022-07-05T02:30:07;2.30;;;1.60;;
15425;SDS011;7812;50.072;7.036;2022-07-05T02:32:33;1.77;;;1.33;;
15425;SDS011;7812;50.072;7.036;2022-07-05T02:34:59;2.10;;;1.40;;
15425;SDS011;7812;50.072;7.036;2022-07-05T02:37:24;2.27;;;1.30;;
15425;SDS011;7812;50.072;7.036;2022-07-05T02:39:51;1.47;;;1.37;;
15425;SDS011;7812;50.072;7.036;2022-07-05T02:42:17;1.40;;;1.30;;
15425;SDS011;7812;50.072;7.036;2022-07-05T02:44:43;1.70;;;1.60;;
15425;SDS011;7812;50.072;7.036;2022-07-05T02:47:08;2.43;;;1.40;;
15425;SDS011;7812;50.072;7.036;2022-07-05T02:49:34;1.97;;;1.50;;
15425;SDS011;7812;50.072;7.036;2022-07-05T02:52:00;2.50;;;1.63;;
15425;SDS011;7812;50.072;7.036;2022-07-05T02:54:25;1.87;;;1.67;;
15425;SDS011;7812;50.072;7.036;2022-07-05T02:56:51;2.23;;;1.47;;
15425;SDS011;7812;50.072;7.036;2022-07-05T02:59:17;2.27;;;1.57;;
15425;SDS011;7812;50.072;7.036;2022-07-05T03:01:43;1.63;;;1.53;;
15425;SDS011;7812;50.072;7.036;2022-07-05T03:04:08;2.10;;;1.63;;
15425;SDS011;7812;50.072;7.036;2022-07-05T03:06:35;1.67;;;1.30;;
15425;SDS011;7812;50.072;7.036;2022-07-05T03:09:01;3.07;;;1.60;;
15425;SDS011;7812;50.072;7.036;2022-07-05T03:11:27;2.60;;;1.50;;
15425;SDS011;7812;50.072;7.036;2022-07-05T03:13:53;1.50;;;1.40;;
15425;SDS011;7812;50.072;7.036;2022-07-05T03:16:21;1.90;;;1.60;;
15425;SDS011;7812;50.072;7.036;2022-07-05T03:18:49;2.13;;;1.43;;
15425;SDS011;7812;50.072;7.036;2022-07-05T03:21:15;1.90;;;1.70;;
15425;SDS011;7812;50.072;7.036;2022-07-05T03:23:41;1.50;;;1.40;;
15425;SDS011;7812;50.072;7.036;2022-07-05T03:26:06;1.70;;;1.60;;
15425;SDS011;7812;50.072;7.036;2022-07-05T03:28:32;1.60;;;1.50;;
15425;SDS011;7812;50.072;7.036;2022-07-05T03:31:01;2.10;;;1.50;;
15425;SDS011;7812;50.072;7.036;2022-07-05T03:33:26;1.73;;;1.60;;
15425;SDS011;7812;50.072;7.036;2022-07-05T03:35:52;1.67;;;1.50;;
15425;SDS011;7812;50.072;7.036;2022-07-05T03:38:18;2.40;;;1.80;;
15425;SDS011;7812;50.072;7.036;2022-07-05T03:40:44;3.40;;;1.40;;
15425;SDS011;7812;50.072;7.036;2022-07-05T03:43:09;1.57;;;1.47;;
15425;SDS011;7812;50.072;7.036;2022-07-05T03:45:35;2.80;;;1.50;;
15425;SDS011;7812;50.072;7.036;2022-07-05T03:48:01;3.10;;;1.53;;
15425;SDS011;7812;50.072;7.036;2022-07-05T03:50:27;1.80;;;1.50;;
15425;SDS011;7812;50.072;7.036;2022-07-05T03:52:53;2.83;;;1.63;;
15425;SDS011;7812;50.072;7.036;2022-07-05T03:55:18;2.00;;;1.63;;
15425;SDS011;7812;50.072;7.036;2022-07-05T03:57:44;2.10;;;1.53;;
15425;SDS011;7812;50.072;7.036;2022-07-05T04:00:11;4.57;;;1.60;;
15425;SDS011;7812;50.072;7.036;2022-07-05T04:02:37;2.77;;;1.67;;
15425;SDS011;7812;50.072;7.036;2022-07-05T04:05:03;2.90;;;1.63;;
15425;SDS011;7812;50.072;7.036;2022-07-05T04:07:30;2.03;;;1.60;;
15425;SDS011;7812;50.072;7.036;2022-07-05T04:09:55;1.60;;;1.50;;
15425;SDS011;7812;50.072;7.036;2022-07-05T04:12:21;1.60;;;1.50;;
15425;SDS011;7812;50.072;7.036;2022-07-05T04:14:47;3.07;;;1.57;;
15425;SDS011;7812;50.072;7.036;2022-07-05T04:17:13;2.50;;;1.53;;
15425;SDS011;7812;50.072;7.036;2022-07-05T04:19:38;1.50;;;1.40;;
15425;SDS011;7812;50.072;7.036;2022-07-05T04:22:04;1.50;;;1.40;;
15425;SDS011;7812;50.072;7.036;2022-07-05T04:24:30;2.30;;;1.60;;
15425;SDS011;7812;50.072;7.036;2022-07-05T04:26:56;1.60;;;1.50;;
15425;SDS011;7812;50.072;7.036;2022-07-05T04:29:21;1.80;;;1.50;;
15425;SDS011;7812;50.072;7.036;2022-07-05T04:31:47;2.67;;;1.53;;
15425;SDS011;7812;50.072;7.036;2022-07-05T04:34:13;2.60;;;1.70;;
15425;SDS011;7812;50.072;7.036;2022-07-05T04:36:39;1.57;;;1.47;;
15425;SDS011;7812;50.072;7.036;2022-07-05T04:39:06;2.80;;;1.63;;
15425;SDS011;7812;50.072;7.036;2022-07-05T04:41:32;2.90;;;1.63;;
15425;SDS011;7812;50.072;7.036;2022-07-05T04:43:58;2.70;;;1.50;;
15425;SDS011;7812;50.072;7.036;2022-07-05T04:46:24;2.37;;;1.50;;
15425;SDS011;7812;50.072;7.036;2022-07-05T04:48:50;1.77;;;1.50;;
15425;SDS011;7812;50.072;7.036;2022-07-05T04:51:16;2.17;;;1.70;;
15425;SDS011;7812;50.072;7.036;2022-07-05T04:53:42;3.47;;;1.87;;
15425;SDS011;7812;50.072;7.036;2022-07-05T04:56:08;1.63;;;1.53;;
15425;SDS011;7812;50.072;7.036;2022-07-05T04:58:34;1.83;;;1.70;;
15425;SDS011;7812;50.072;7.036;2022-07-05T05:01:00;2.50;;;1.70;;
15425;SDS011;7812;50.072;7.036;2022-07-05T05:03:26;1.97;;;1.63;;
15425;SDS011;7812;50.072;7.036;2022-07-05T05:05:51;2.10;;;1.57;;
15425;SDS011;7812;50.072;7.036;2022-07-05T05:08:17;2.33;;;1.57;;
15425;SDS011;7812;50.072;7.036;2022-07-05T05:10:43;1.97;;;1.80;;
15425;SDS011;7812;50.072;7.036;2022-07-05T05:13:09;1.50;;;1.40;;
15425;SDS011;7812;50.072;7.036;2022-07-05T05:15:35;2.07;;;1.60;;
15425;SDS011;7812;50.072;7.036;2022-07-05T05:18:00;2.00;;;1.57;;
15425;SDS011;7812;50.072;7.036;2022-07-05T05:20:27;2.03;;;1.70;;
15425;SDS011;7812;50.072;7.036;2022-07-05T05:22:53;2.30;;;2.00;;
15425;SDS011;7812;50.072;7.036;2022-07-05T05:25:19;1.80;;;1.70;;
15425;SDS011;7812;50.072;7.036;2022-07-05T05:27:45;2.83;;;1.80;;
15425;SDS011;7812;50.072;7.036;2022-07-05T05:30:13;5.50;;;1.80;;
15425;SDS011;7812;50.072;7.036;2022-07-05T05:32:39;2.37;;;1.60;;
15425;SDS011;7812;50.072;7.036;2022-07-05T05:35:05;2.70;;;1.80;;
15425;SDS011;7812;50.072;7.036;2022-07-05T05:37:47;2.23;;;1.67;;
15425;SDS011;7812;50.072;7.036;2022-07-05T05:40:13;2.47;;;1.70;;
15425;SDS011;7812;50.072;7.036;2022-07-05T05:42:39;1.60;;;1.50;;
15425;SDS011;7812;50.072;7.036;2022-07-05T05:45:05;2.63;;;1.63;;
15425;SDS011;7812;50.072;7.036;2022-07-05T05:47:31;1.97;;;1.50;;
15425;SDS011;7812;50.072;7.036;2022-07-05T05:49:57;1.80;;;1.53;;
15425;SDS011;7812;50.072;7.036;2022-07-05T05:52:23;2.60;;;1.70;;
15425;SDS011;7812;50.072;7.036;2022-07-05T05:54:49;2.03;;;1.50;;
15425;SDS011;7812;50.072;7.036;2022-07-05T05:57:14;1.93;;;1.77;;
15425;SDS011;7812;50.072;7.036;2022-07-05T05:59:40;3.03;;;2.00;;
15425;SDS011;7812;50.072;7.036;2022-07-05T06:02:06;5.33;;;1.83;;
15425;SDS011;7812;50.072;7.036;2022-07-05T06:04:31;4.10;;;1.67;;
15425;SDS011;7812;50.072;7.036;2022-07-05T06:06:57;3.10;;;1.50;;
15425;SDS011;7812;50.072;7.036;2022-07-05T06:09:23;1.87;;;1.40;;
15425;SDS011;7812;50.072;7.036;2022-07-05T06:11:48;1.70;;;1.40;;
15425;SDS011;7812;50.072;7.036;2022-07-05T06:14:14;1.70;;;1.60;;
15425;SDS011;7812;50.072;7.036;2022-07-05T06:16:40;2.63;;;1.70;;
15425;SDS011;7812;50.072;7.036;2022-07-05T06:19:05;1.97;;;1.77;;
15425;SDS011;7812;50.072;7.036;2022-07-05T06:21:31;1.53;;;1.40;;
15425;SDS011;7812;50.072;7.036;2022-07-05T06:23:57;1.80;;;1.30;;
15425;SDS011;7812;50.072;7.036;2022-07-05T06:26:22;2.03;;;1.20;;
15425;SDS011;7812;50.072;7.036;2022-07-05T06:28:48;1.97;;;1.60;;
15425;SDS011;7812;50.072;7.036;2022-07-05T06:31:14;3.20;;;1.50;;
15425;SDS011;7812;50.072;7.036;2022-07-05T06:33:40;2.23;;;1.50;;
15425;SDS011;7812;50.072;7.036;2022-07-05T06:36:06;2.37;;;1.40;;
15425;SDS011;7812;50.072;7.036;2022-07-05T06:38:32;1.60;;;1.50;;
15425;SDS011;7812;50.072;7.036;2022-07-05T06:40:58;4.17;;;1.40;;
15425;SDS011;7812;50.072;7.036;2022-07-05T06:43:25;3.60;;;1.60;;
15425;SDS011;7812;50.072;7.036;2022-07-05T06:45:50;6.00;;;1.70;;
15425;SDS011;7812;50.072;7.036;2022-07-05T06:48:17;1.60;;;1.30;;
15425;SDS011;7812;50.072;7.036;2022-07-05T06:50:43;3.87;;;1.50;;
15425;SDS011;7812;50.072;7.036;2022-07-05T06:53:09;2.43;;;1.70;;
15425;SDS011;7812;50.072;7.036;2022-07-05T06:55:36;2.10;;;1.70;;
15425;SDS011;7812;50.072;7.036;2022-07-05T06:58:06;1.47;;;1.30;;
15425;SDS011;7812;50.072;7.036;2022-07-05T07:00:32;3.13;;;1.90;;
15425;SDS011;7812;50.072;7.036;2022-07-05T07:02:58;2.97;;;1.57;;
15425;SDS011;7812;50.072;7.036;2022-07-05T07:05:24;3.40;;;1.80;;
15425;SDS011;7812;50.072;7.036;2022-07-05T07:07:51;4.80;;;1.90;;
15425;SDS011;7812;50.072;7.036;2022-07-05T07:10:35;3.97;;;2.33;;
15425;SDS011;7812;50.072;7.036;2022-07-05T07:13:02;4.17;;;2.10;;
15425;SDS011;7812;50.072;7.036;2022-07-05T07:15:29;3.33;;;1.90;;
15425;SDS011;7812;50.072;7.036;2022-07-05T07:17:56;3.27;;;1.80;;
15425;SDS011;7812;50.072;7.036;2022-07-05T07:20:24;3.97;;;1.83;;
15425;SDS011;7812;50.072;7.036;2022-07-05T07:22:50;2.77;;;2.47;;
15425;SDS011;7812;50.072;7.036;2022-07-05T07:25:16;3.93;;;2.17;;
15425;SDS011;7812;50.072;7.036;2022-07-05T07:27:49;2.80;;;1.73;;
15425;SDS011;7812;50.072;7.036;2022-07-05T07:30:20;4.13;;;1.83;;
15425;SDS011;7812;50.072;7.036;2022-07-05T07:32:47;2.60;;;1.70;;
15425;SDS011;7812;50.072;7.036;2022-07-05T07:35:13;2.07;;;1.87;;
15425;SDS011;7812;50.072;7.036;2022-07-05T07:37:39;2.83;;;1.60;;
15425;SDS011;7812;50.072;7.036;2022-07-05T07:40:06;4.13;;;1.60;;
15425;SDS011;7812;50.072;7.036;2022-07-05T07:42:32;1.97;;;1.37;;
15425;SDS011;7812;50.072;7.036;2022-07-05T07:44:58;2.00;;;1.47;;
15425;SDS011;7812;50.072;7.036;2022-07-05T07:47:28;2.57;;;1.50;;
15425;SDS011;7812;50.072;7.036;2022-07-05T07:49:57;2.60;;;2.03;;
15425;SDS011;7812;50.072;7.036;2022-07-05T07:52:22;1.57;;;1.37;;
15425;SDS011;7812;50.072;7.036;2022-07-05T07:54:48;1.60;;;1.30;;
15425;SDS011;7812;50.072;7.036;2022-07-05T07:57:14;2.40;;;1.50;;
15425;SDS011;7812;50.072;7.036;2022-07-05T07:59:40;2.53;;;1.23;;
15425;SDS011;7812;50.072;7.036;2022-07-05T08:02:06;3.40;;;1.43;;
15425;SDS011;7812;50.072;7.036;2022-07-05T08:04:31;1.40;;;1.30;;
15425;SDS011;7812;50.072;7.036;2022-07-05T08:06:58;3.43;;;1.60;;
15425;SDS011;7812;50.072;7.036;2022-07-05T08:09:24;4.00;;;1.40;;
15425;SDS011;7812;50.072;7.036;2022-07-05T08:11:49;1.90;;;1.43;;
15425;SDS011;7812;50.072;7.036;2022-07-05T08:14:16;1.77;;;1.30;;
15425;SDS011;7812;50.072;7.036;2022-07-05T08:16:42;1.90;;;1.30;;
15425;SDS011;7812;50.072;7.036;2022-07-05T08:19:10;1.83;;;1.30;;
15425;SDS011;7812;50.072;7.036;2022-07-05T08:21:54;4.27;;;1.63;;
15425;SDS011;7812;50.072;7.036;2022-07-05T08:24:20;4.13;;;1.60;;
15425;SDS011;7812;50.072;7.036;2022-07-05T08:26:47;2.10;;;1.40;;
15425;SDS011;7812;50.072;7.036;2022-07-05T08:29:13;2.67;;;1.50;;
15425;SDS011;7812;50.072;7.036;2022-07-05T08:31:40;2.83;;;1.60;;
15425;SDS011;7812;50.072;7.036;2022-07-05T08:34:08;2.10;;;1.50;;
15425;SDS011;7812;50.072;7.036;2022-07-05T08:36:34;2.27;;;1.50;;
15425;SDS011;7812;50.072;7.036;2022-07-05T08:39:01;2.10;;;1.30;;
15425;SDS011;7812;50.072;7.036;2022-07-05T08:41:27;3.83;;;1.47;;
15425;SDS011;7812;50.072;7.036;2022-07-05T08:43:54;3.53;;;1.50;;
15425;SDS011;7812;50.072;7.036;2022-07-05T08:46:22;4.30;;;1.50;;
15425;SDS011;7812;50.072;7.036;2022-07-05T08:48:50;2.87;;;1.20;;
15425;SDS011;7812;50.072;7.036;2022-07-05T08:51:17;3.57;;;1.73;;
15425;SDS011;7812;50.072;7.036;2022-07-05T08:53:46;1.67;;;1.17;;
15425;SDS011;7812;50.072;7.036;2022-07-05T08:56:13;2.63;;;1.33;;
15425;SDS011;7812;50.072;7.036;2022-07-05T08:58:39;2.93;;;1.47;;
15425;SDS011;7812;50.072;7.036;2022-07-05T09:01:06;3.00;;;1.30;;
15425;SDS011;7812;50.072;7.036;2022-07-05T09:03:34;1.33;;;1.00;;
15425;SDS011;7812;50.072;7.036;2022-07-05T09:06:10;2.90;;;1.10;;
15425;SDS011;7812;50.072;7.036;2022-07-05T09:08:38;2.27;;;1.20;;
15425;SDS011;7812;50.072;7.036;2022-07-05T09:11:06;2.03;;;1.30;;
15425;SDS011;7812;50.072;7.036;2022-07-05T09:13:34;2.30;;;1.40;;
15425;SDS011;7812;50.072;7.036;2022-07-05T09:16:04;2.93;;;1.40;;
15425;SDS011;7812;50.072;7.036;2022-07-05T09:18:44;4.27;;;1.20;;
15425;SDS011;7812;50.072;7.036;2022-07-05T09:23:43;1.30;;;1.20;;
15425;SDS011;7812;50.072;7.036;2022-07-05T09:26:09;1.77;;;1.30;;
15425;SDS011;7812;50.072;7.036;2022-07-05T09:28:35;1.47;;;1.20;;
15425;SDS011;7812;50.072;7.036;2022-07-05T09:31:02;3.13;;;1.43;;
15425;SDS011;7812;50.072;7.036;2022-07-05T09:33:27;4.93;;;1.30;;
15425;SDS011;7812;50.072;7.036;2022-07-05T09:35:56;3.13;;;1.47;;
15425;SDS011;7812;50.072;7.036;2022-07-05T09:38:23;2.60;;;1.43;;
15425;SDS011;7812;50.072;7.036;2022-07-05T09:40:50;2.40;;;1.10;;
15425;SDS011;7812;50.072;7.036;2022-07-05T09:43:19;2.33;;;1.37;;
15425;SDS011;7812;50.072;7.036;2022-07-05T09:48:18;2.03;;;1.20;;
15425;SDS011;7812;50.072;7.036;2022-07-05T09:50:43;1.73;;;1.10;;
15425;SDS011;7812;50.072;7.036;2022-07-05T09:53:10;1.87;;;1.20;;
15425;SDS011;7812;50.072;7.036;2022-07-05T09:55:37;2.80;;;1.40;;
15425;SDS011;7812;50.072;7.036;2022-07-05T09:58:03;2.37;;;1.20;;
15425;SDS011;7812;50.072;7.036;2022-07-05T10:00:29;2.20;;;1.10;;
15425;SDS011;7812;50.072;7.036;2022-07-05T10:02:56;2.63;;;1.30;;
15425;SDS011;7812;50.072;7.036;2022-07-05T10:05:27;2.90;;;1.00;;
15425;SDS011;7812;50.072;7.036;2022-07-05T10:07:55;2.40;;;1.03;;
15425;SDS011;7812;50.072;7.036;2022-07-05T10:10:26;4.73;;;1.00;;
15425;SDS011;7812;50.072;7.036;2022-07-05T10:12:59;1.70;;;1.27;;
15425;SDS011;7812;50.072;7.036;2022-07-05T10:15:31;2.20;;;1.40;;
15425;SDS011;7812;50.072;7.036;2022-07-05T10:23:07;1.43;;;1.20;;
15425;SDS011;7812;50.072;7.036;2022-07-05T10:25:41;2.57;;;1.10;;
15425;SDS011;7812;50.072;7.036;2022-07-05T10:28:13;2.00;;;1.10;;
15425;SDS011;7812;50.072;7.036;2022-07-05T10:30:46;1.40;;;1.00;;
15425;SDS011;7812;50.072;7.036;2022-07-05T10:33:15;2.47;;;1.50;;
15425;SDS011;7812;50.072;7.036;2022-07-05T10:35:45;1.97;;;1.40;;
15425;SDS011;7812;50.072;7.036;2022-07-05T10:38:12;1.93;;;1.47;;
15425;SDS011;7812;50.072;7.036;2022-07-05T10:40:42;2.00;;;1.20;;
15425;SDS011;7812;50.072;7.036;2022-07-05T10:43:12;2.47;;;1.27;;
15425;SDS011;7812;50.072;7.036;2022-07-05T10:45:40;2.87;;;1.30;;
15425;SDS011;7812;50.072;7.036;2022-07-05T10:53:59;2.17;;;1.17;;
15425;SDS011;7812;50.072;7.036;2022-07-05T10:56:21;2.37;;;1.10;;
15425;SDS011;7812;50.072;7.036;2022-07-05T10:58:47;3.00;;;1.27;;
15425;SDS011;7812;50.072;7.036;2022-07-05T11:03:54;2.00;;;1.17;;
15425;SDS011;7812;50.072;7.036;2022-07-05T11:06:41;1.67;;;1.13;;
15425;SDS011;7812;50.072;7.036;2022-07-05T11:11:40;3.47;;;1.30;;
15425;SDS011;7812;50.072;7.036;2022-07-05T11:19:34;1.20;;;1.10;;
15425;SDS011;7812;50.072;7.036;2022-07-05T11:22:20;1.57;;;1.17;;
15425;SDS011;7812;50.072;7.036;2022-07-05T11:24:46;1.63;;;1.13;;
15425;SDS011;7812;50.072;7.036;2022-07-05T11:27:12;2.20;;;1.50;;
15425;SDS011;7812;50.072;7.036;2022-07-05T11:32:08;1.80;;;1.40;;
15425;SDS011;7812;50.072;7.036;2022-07-05T11:34:36;2.30;;;1.13;;
15425;SDS011;7812;50.072;7.036;2022-07-05T11:42:45;3.77;;;1.10;;
15425;SDS011;7812;50.072;7.036;2022-07-05T11:45:12;2.03;;;1.10;;
15425;SDS011;7812;50.072;7.036;2022-07-05T11:47:39;1.87;;;1.13;;
15425;SDS011;7812;50.072;7.036;2022-07-05T11:50:06;1.20;;;1.10;;
15425;SDS011;7812;50.072;7.036;2022-07-05T11:52:37;1.47;;;1.07;;
15425;SDS011;7812;50.072;7.036;2022-07-05T11:55:06;1.60;;;1.50;;
15425;SDS011;7812;50.072;7.036;2022-07-05T11:57:33;1.53;;;1.10;;
15425;SDS011;7812;50.072;7.036;2022-07-05T11:59:59;2.60;;;1.10;;
15425;SDS011;7812;50.072;7.036;2022-07-05T12:02:26;2.73;;;1.00;;
15425;SDS011;7812;50.072;7.036;2022-07-05T12:04:52;1.87;;;1.37;;
15425;SDS011;7812;50.072;7.036;2022-07-05T12:09:55;1.10;;;1.00;;
15425;SDS011;7812;50.072;7.036;2022-07-05T12:12:40;2.00;;;1.10;;
15425;SDS011;7812;50.072;7.036;2022-07-05T12:17:45;1.67;;;1.00;;
15425;SDS011;7812;50.072;7.036;2022-07-05T12:20:13;1.83;;;1.10;;
15425;SDS011;7812;50.072;7.036;2022-07-05T12:22:41;1.33;;;1.17;;
15425;SDS011;7812;50.072;7.036;2022-07-05T12:25:12;1.87;;;1.00;;
15425;SDS011;7812;50.072;7.036;2022-07-05T12:27:42;1.93;;;1.10;;
15425;SDS011;7812;50.072;7.036;2022-07-05T12:30:10;1.57;;;0.90;;
15425;SDS011;7812;50.072;7.036;2022-07-05T12:35:40;1.73;;;0.90;;
15425;SDS011;7812;50.072;7.036;2022-07-05T12:40:42;1.20;;;0.90;;
15425;SDS011;7812;50.072;7.036;2022-07-05T12:43:12;1.60;;;1.30;;
15425;SDS011;7812;50.072;7.036;2022-07-05T12:45:41;1.73;;;1.13;;
15425;SDS011;7812;50.072;7.036;2022-07-05T12:48:08;2.33;;;1.00;;
15425;SDS011;7812;50.072;7.036;2022-07-05T12:53:13;1.97;;;0.90;;
15425;SDS011;7812;50.072;7.036;2022-07-05T12:56:02;1.67;;;0.90;;
15425;SDS011;7812;50.072;7.036;2022-07-05T12:58:55;1.07;;;0.90;;
15425;SDS011;7812;50.072;7.036;2022-07-05T13:09:37;1.07;;;0.93;;
15425;SDS011;7812;50.072;7.036;2022-07-05T13:12:19;0.80;;;0.80;;
15425;SDS011;7812;50.072;7.036;2022-07-05T13:14:49;1.67;;;1.10;;
15425;SDS011;7812;50.072;7.036;2022-07-05T13:17:16;2.00;;;1.00;;
15425;SDS011;7812;50.072;7.036;2022-07-05T13:19:47;1.97;;;1.10;;
15425;SDS011;7812;50.072;7.036;2022-07-05T13:22:14;1.53;;;1.10;;
15425;SDS011;7812;50.072;7.036;2022-07-05T13:24:40;1.07;;;0.87;;
15425;SDS011;7812;50.072;7.036;2022-07-05T13:27:07;1.17;;;1.00;;
15425;SDS011;7812;50.072;7.036;2022-07-05T13:29:33;1.20;;;0.80;;
15425;SDS011;7812;50.072;7.036;2022-07-05T13:32:00;2.03;;;1.20;;
15425;SDS011;7812;50.072;7.036;2022-07-05T13:34:25;1.37;;;1.27;;
15425;SDS011;7812;50.072;7.036;2022-07-05T13:37:00;1.83;;;0.93;;
15425;SDS011;7812;50.072;7.036;2022-07-05T13:39:27;1.10;;;0.90;;
15425;SDS011;7812;50.072;7.036;2022-07-05T13:41:54;2.47;;;1.00;;
15425;SDS011;7812;50.072;7.036;2022-07-05T13:44:21;2.27;;;0.90;;
15425;SDS011;7812;50.072;7.036;2022-07-05T13:46:47;2.03;;;1.17;;
15425;SDS011;7812;50.072;7.036;2022-07-05T13:49:13;1.70;;;1.20;;
15425;SDS011;7812;50.072;7.036;2022-07-05T13:51:39;2.13;;;0.97;;
15425;SDS011;7812;50.072;7.036;2022-07-05T13:54:04;1.50;;;1.10;;
15425;SDS011;7812;50.072;7.036;2022-07-05T13:56:30;1.67;;;1.00;;
15425;SDS011;7812;50.072;7.036;2022-07-05T13:58:57;2.00;;;1.00;;
15425;SDS011;7812;50.072;7.036;2022-07-05T14:01:24;0.90;;;0.80;;
15425;SDS011;7812;50.072;7.036;2022-07-05T14:03:54;1.83;;;1.00;;
15425;SDS011;7812;50.072;7.036;2022-07-05T14:06:27;1.90;;;1.20;;
15425;SDS011;7812;50.072;7.036;2022-07-05T14:08:57;1.60;;;0.90;;
15425;SDS011;7812;50.072;7.036;2022-07-05T14:11:23;1.80;;;1.10;;
15425;SDS011;7812;50.072;7.036;2022-07-05T14:13:51;1.37;;;0.90;;
15425;SDS011;7812;50.072;7.036;2022-07-05T14:16:20;3.90;;;1.10;;
15425;SDS011;7812;50.072;7.036;2022-07-05T14:18:46;1.93;;;1.07;;
15425;SDS011;7812;50.072;7.036;2022-07-05T14:21:13;1.00;;;1.00;;
15425;SDS011;7812;50.072;7.036;2022-07-05T14:23:45;1.60;;;1.00;;
15425;SDS011;7812;50.072;7.036;2022-07-05T14:26:14;1.10;;;1.00;;
15425;SDS011;7812;50.072;7.036;2022-07-05T14:28:40;1.77;;;1.00;;
15425;SDS011;7812;50.072;7.036;2022-07-05T14:31:06;3.37;;;0.80;;
15425;SDS011;7812;50.072;7.036;2022-07-05T14:33:32;1.20;;;1.10;;
15425;SDS011;7812;50.072;7.036;2022-07-05T14:35:57;1.30;;;1.10;;
15425;SDS011;7812;50.072;7.036;2022-07-05T14:38:23;3.73;;;1.40;;
15425;SDS011;7812;50.072;7.036;2022-07-05T14:40:49;1.93;;;1.07;;
15425;SDS011;7812;50.072;7.036;2022-07-05T14:43:15;3.23;;;1.63;;
15425;SDS011;7812;50.072;7.036;2022-07-05T14:45:40;1.70;;;0.97;;
15425;SDS011;7812;50.072;7.036;2022-07-05T14:48:06;1.93;;;1.10;;
15425;SDS011;7812;50.072;7.036;2022-07-05T14:50:32;1.47;;;0.90;;
15425;SDS011;7812;50.072;7.036;2022-07-05T14:52:58;2.00;;;1.00;;
15425;SDS011;7812;50.072;7.036;2022-07-05T14:55:30;1.63;;;0.80;;
15425;SDS011;7812;50.072;7.036;2022-07-05T14:57:57;2.37;;;1.00;;
15425;SDS011;7812;50.072;7.036;2022-07-05T15:00:22;1.33;;;1.10;;
15425;SDS011;7812;50.072;7.036;2022-07-05T15:02:48;2.00;;;1.10;;
15425;SDS011;7812;50.072;7.036;2022-07-05T15:05:14;1.80;;;1.17;;
15425;SDS011;7812;50.072;7.036;2022-07-05T15:07:39;1.70;;;1.20;;
15425;SDS011;7812;50.072;7.036;2022-07-05T15:10:06;1.30;;;1.20;;
15425;SDS011;7812;50.072;7.036;2022-07-05T15:12:34;2.13;;;1.07;;
15425;SDS011;7812;50.072;7.036;2022-07-05T15:15:00;4.63;;;1.60;;
15425;SDS011;7812;50.072;7.036;2022-07-05T15:17:25;2.37;;;1.30;;
15425;SDS011;7812;50.072;7.036;2022-07-05T15:19:52;1.20;;;1.00;;
15425;SDS011;7812;50.072;7.036;2022-07-05T15:22:17;1.60;;;1.37;;
15425;SDS011;7812;50.072;7.036;2022-07-05T15:24:43;1.67;;;1.10;;
15425;SDS011;7812;50.072;7.036;2022-07-05T15:27:09;1.73;;;1.00;;
15425;SDS011;7812;50.072;7.036;2022-07-05T15:29:35;1.83;;;1.00;;
15425;SDS011;7812;50.072;7.036;2022-07-05T15:32:02;1.80;;;1.10;;
15425;SDS011;7812;50.072;7.036;2022-07-05T15:34:28;1.50;;;1.10;;
15425;SDS011;7812;50.072;7.036;2022-07-05T15:36:53;1.40;;;1.10;;
15425;SDS011;7812;50.072;7.036;2022-07-05T15:39:19;1.57;;;1.10;;
15425;SDS011;7812;50.072;7.036;2022-07-05T15:41:45;1.20;;;1.10;;
15425;SDS011;7812;50.072;7.036;2022-07-05T15:44:10;1.70;;;1.10;;
15425;SDS011;7812;50.072;7.036;2022-07-05T15:46:36;1.00;;;0.90;;
15425;SDS011;7812;50.072;7.036;2022-07-05T15:49:20;1.20;;;1.00;;
15425;SDS011;7812;50.072;7.036;2022-07-05T15:51:46;1.10;;;1.00;;
15425;SDS011;7812;50.072;7.036;2022-07-05T15:54:12;1.93;;;0.93;;
15425;SDS011;7812;50.072;7.036;2022-07-05T15:56:38;3.07;;;1.30;;
15425;SDS011;7812;50.072;7.036;2022-07-05T15:59:05;1.97;;;1.10;;